Hauptseite
METAR-TAF:

METAR-TAF

Flughäfen :

Memmingen, Deutschland

Breite: 47-59-33N, Länge: 10-14-37E, Höhe: 633 m

Beobachtung

Neuester Wetterbericht von vor 18 Minuten, um 12:50 UTC
Wind 6 kt aus West
Temperatur 2°C
Luftfeuchtigkeit 75%
Luftdruck 1026 hPa
Sichtweite 10 km oder mehr
Leicht bewölkt in der Höhe von 3200 ft
Aufgelockert bewölkt in der Höhe von 4000 ft
Durchbrochene Bewölkung in der Höhe von 5100 ft

METAR: EDJA 101250Z 27006KT 9999 FEW032 SCT040 BKN051 02/M02 Q1026

Zeit: 14:08 (13:08 UTC)

Prognose

Neuester Wetterbericht von vor 2 Stunden und 8 Minuten, um 11:00 UTC
Gültige Prognose vom 10 um 12 UTC bis 10 um 21 UTC
Wind 6 kt aus West
Sichtweite 10 km oder mehr
Aufgelockert bewölkt in der Höhe von 3000 ft
Übergehend zu
vom 10 um 15 UTC bis 10 um 18 UTC
Wind 3 kt aus Süd/Südost

TAF: EDJA 101100Z 1012/1021 26006KT 9999 SCT030 BECMG 1015/1018 16003KT

Wetterbeobachtungen und Prognosen von mehr als 4000 Flughäfen (METAR und TAF Bericht).

Die verfügbaren Stationen werden durch gelbe und rote Markierungen auf der Karte dargestellt.

Führen Sie die Maus auf sie, um den Namen der Station zu sehen.

Darauf klicken, um die Beobachtung von Wetterbeobachtungen und Prognosen zu sehen.

Um die Karte zu ändern : klicken Sie auf den grünen Tasten mit einem schwarzen Kreuz Zum Vergrößern, auf den grünen Button mit einem Gedankenstrich zu verkleinern, oder auf die grünen Pfeile für benachbarte Karten.


METAR-TAF: